Time;durP1;ratioP1;P1;durP2;ratioP2;P2;SDS_P1;SDS_P2;PMS_P1;PMS_P2;Temp;Humidity;BMP_temperature;BMP_pressure;BME280_temperature;BME280_humidity;BME280_pressure;Samples;Min_cycle;Max_cycle;Signal;HPM_P1;HPM_P2
2023/07/06 00:01:27;;;;;;;4.13;1.65;;;18.20;65.60;;;;;;5018071;28;20107;-68
2023/07/06 00:03:56;;;;;;;;;;;18.10;65.70;;;;;;5010194;28;20054;-65
2023/07/06 00:06:23;;;;;;;4.20;1.85;;;18.20;65.70;;;;;;5016713;28;20130;-66
2023/07/06 00:08:52;;;;;;;4.25;2.35;;;18.20;65.80;;;;;;4988054;28;20058;-67
2023/07/06 00:11:20;;;;;;;4.07;2.17;;;18.20;65.80;;;;;;4986638;28;20133;-64
2023/07/06 00:13:47;;;;;;;5.20;2.08;;;18.20;66.10;;;;;;5010917;28;20053;-65
2023/07/06 00:16:15;;;;;;;3.53;2.10;;;18.20;66.30;;;;;;5015499;28;20068;-65
2023/07/06 00:18:43;;;;;;;5.75;2.55;;;18.20;66.80;;;;;;5014175;28;20049;-65
2023/07/06 00:21:10;;;;;;;4.45;2.30;;;18.10;67.00;;;;;;5004386;28;20160;-65
2023/07/06 00:23:37;;;;;;;5.60;2.65;;;18.00;67.30;;;;;;4993536;28;20143;-65
2023/07/06 00:26:04;;;;;;;6.43;2.80;;;18.00;67.70;;;;;;5015966;28;20122;-66
2023/07/06 00:28:32;;;;;;;4.25;2.38;;;17.90;68.00;;;;;;5017473;28;20108;-66
2023/07/06 00:31:02;;;;;;;6.47;2.67;;;17.90;68.10;;;;;;5018554;28;20141;-66
2023/07/06 00:33:30;;;;;;;;;;;17.90;68.40;;;;;;5001885;28;20129;-66
2023/07/06 00:35:58;;;;;;;5.47;2.58;;;17.90;68.30;;;;;;4999465;28;19932;-66
2023/07/06 00:38:27;;;;;;;6.75;2.80;;;17.80;68.30;;;;;;5019739;28;20468;-65
2023/07/06 00:40:57;;;;;;;4.15;2.42;;;17.80;68.20;;;;;;5018954;28;20088;-67
2023/07/06 00:43:27;;;;;;;5.05;2.42;;;17.90;68.40;;;;;;5017992;28;20057;-67
2023/07/06 00:45:57;;;;;;;3.63;2.13;;;17.70;68.50;;;;;;5018790;28;20441;-64
2023/07/06 00:48:31;;;;;;;5.35;2.00;;;17.70;68.80;;;;;;4999201;28;20045;-66
2023/07/06 00:51:03;;;;;;;5.63;2.17;;;17.70;69.00;;;;;;5018174;28;20056;-65
2023/07/06 00:53:33;;;;;;;4.93;1.90;;;17.60;69.10;;;;;;5020049;28;20117;-65
2023/07/06 00:56:03;;;;;;;6.53;2.30;;;17.70;69.10;;;;;;5015427;28;20054;-65
2023/07/06 00:58:34;;;;;;;5.00;2.20;;;17.70;69.00;;;;;;4991244;28;20046;-66
2023/07/06 01:01:05;;;;;;;4.22;2.30;;;17.70;69.00;;;;;;4998269;28;20057;-66
2023/07/06 01:03:33;;;;;;;4.80;2.30;;;17.70;69.10;;;;;;5016701;28;20085;-66
2023/07/06 01:06:03;;;;;;;4.57;2.25;;;17.60;69.10;;;;;;4994692;28;20049;-66
2023/07/06 01:08:35;;;;;;;5.60;2.10;;;17.70;69.10;;;;;;5018219;28;20045;-67
2023/07/06 01:11:04;;;;;;;4.85;2.30;;;17.60;69.10;;;;;;5000979;28;20057;-67
2023/07/06 01:13:32;;;;;;;4.07;2.00;;;17.60;69.10;;;;;;5019709;28;20049;-67
2023/07/06 01:16:05;;;;;;;4.07;2.13;;;17.70;69.00;;;;;;5017945;28;20053;-67
2023/07/06 01:18:45;;;;;;;5.10;2.30;;;17.60;69.10;;;;;;5019343;28;20083;-67
2023/07/06 01:21:17;;;;;;;4.22;2.03;;;17.60;69.10;;;;;;4998966;28;20050;-67
2023/07/06 01:24:06;;;;;;;4.45;2.00;;;17.50;69.20;;;;;;5015533;28;20117;-66
2023/07/06 01:26:46;;;;;;;4.72;1.70;;;17.50;69.30;;;;;;5018463;28;20128;-67
2023/07/06 01:29:23;;;;;;;;;;;17.50;69.20;;;;;;5018187;28;20054;-67
2023/07/06 01:31:55;;;;;;;3.85;1.85;;;17.40;69.10;;;;;;4968377;28;19922;-67
2023/07/06 01:34:29;;;;;;;5.38;1.95;;;17.40;69.20;;;;;;5003107;28;20052;-67
2023/07/06 01:37:02;;;;;;;4.03;2.25;;;17.40;69.20;;;;;;5009729;28;20046;-66
2023/07/06 01:39:30;;;;;;;5.38;2.45;;;17.40;69.30;;;;;;5013731;28;20068;-66
2023/07/06 01:42:29;;;;;;;5.45;2.60;;;17.40;69.40;;;;;;5017856;28;20080;-67
2023/07/06 01:45:02;;;;;;;3.90;2.25;;;17.40;69.40;;;;;;5014103;28;20453;-67
2023/07/06 01:47:33;;;;;;;6.35;2.72;;;17.30;69.70;;;;;;5007695;28;20046;-67
2023/07/06 01:50:01;;;;;;;5.90;2.75;;;17.20;70.00;;;;;;5000867;28;20408;-67
2023/07/06 01:52:52;;;;;;;6.43;2.73;;;17.20;70.10;;;;;;5016083;28;20049;-67
2023/07/06 01:55:27;;;;;;;4.82;2.30;;;17.10;70.30;;;;;;4999157;28;20484;-67
2023/07/06 01:58:07;;;;;;;4.35;2.55;;;17.10;70.50;;;;;;5015003;28;20056;-66
2023/07/06 02:00:35;;;;;;;;;;;17.10;70.60;;;;;;5012400;28;20052;-67
2023/07/06 02:03:06;;;;;;;5.32;2.17;;;17.00;70.60;;;;;;5015965;28;20016;-65
2023/07/06 02:05:34;;;;;;;6.25;2.88;;;16.90;70.70;;;;;;4993981;28;20497;-65
2023/07/06 02:08:01;;;;;;;5.22;2.35;;;16.90;70.80;;;;;;5017349;28;20493;-66
2023/07/06 02:10:30;;;;;;;3.88;2.20;;;16.90;71.10;;;;;;5018498;28;20072;-67
2023/07/06 02:12:57;;;;;;;3.85;2.28;;;16.90;71.00;;;;;;4970019;28;20061;-65
2023/07/06 02:15:24;;;;;;;5.53;2.42;;;16.80;70.90;;;;;;4978906;28;20834;-67
2023/07/06 02:17:55;;;;;;;4.57;2.50;;;16.80;71.00;;;;;;5016878;28;20077;-67
2023/07/06 02:20:24;;;;;;;5.15;2.65;;;16.70;71.00;;;;;;5016437;28;20042;-67
2023/07/06 02:22:51;;;;;;;3.80;2.17;;;16.70;71.10;;;;;;5013077;28;20050;-67
2023/07/06 02:25:20;;;;;;;4.40;2.22;;;16.70;71.00;;;;;;5014785;28;20057;-66
2023/07/06 02:27:47;;;;;;;7.80;2.75;;;16.70;71.20;;;;;;5017317;28;20060;-66
2023/07/06 02:30:14;;;;;;;4.45;2.20;;;16.70;71.20;;;;;;5016266;28;20053;-65
2023/07/06 02:32:42;;;;;;;4.25;2.28;;;16.60;71.30;;;;;;5014991;28;20049;-66
2023/07/06 02:35:10;;;;;;;4.45;2.38;;;16.60;71.40;;;;;;4994219;28;20049;-67
2023/07/06 02:37:39;;;;;;;5.00;2.25;;;16.60;71.50;;;;;;4984008;28;20452;-67
2023/07/06 02:40:08;;;;;;;6.72;2.60;;;16.50;71.50;;;;;;4971483;28;20078;-66
2023/07/06 02:42:35;;;;;;;5.78;2.72;;;16.40;71.70;;;;;;4980138;28;20497;-66
2023/07/06 02:45:05;;;;;;;6.97;2.42;;;16.40;71.80;;;;;;4999613;28;20123;-66
2023/07/06 02:47:32;;;;;;;5.30;2.55;;;16.40;71.90;;;;;;4996575;28;20070;-64
2023/07/06 02:49:59;;;;;;;5.72;2.28;;;16.40;72.00;;;;;;4996613;28;20150;-64
2023/07/06 02:52:26;;;;;;;5.50;2.25;;;16.40;72.00;;;;;;4978085;28;20136;-64
2023/07/06 02:54:54;;;;;;;4.20;2.30;;;16.40;72.00;;;;;;4997943;28;20112;-65
2023/07/06 02:57:22;;;;;;;4.82;2.72;;;16.30;72.20;;;;;;4993910;28;20041;-65
2023/07/06 02:59:48;;;;;;;5.32;2.35;;;16.30;72.10;;;;;;4995988;28;20046;-65
2023/07/06 03:02:16;;;;;;;3.75;2.20;;;16.20;72.20;;;;;;4998777;28;20400;-64
2023/07/06 03:04:43;;;;;;;5.38;2.35;;;16.20;72.50;;;;;;5001184;28;20074;-65
2023/07/06 03:07:10;;;;;;;5.38;2.50;;;16.20;72.60;;;;;;5001582;28;20561;-65
2023/07/06 03:09:37;;;;;;;5.07;2.05;;;16.10;72.40;;;;;;5008717;28;20374;-64
2023/07/06 03:12:09;;;;;;;4.18;1.98;;;16.10;72.40;;;;;;5016191;28;20112;-67
2023/07/06 03:14:36;;;;;;;5.20;2.55;;;16.10;72.30;;;;;;5010073;28;20066;-64
2023/07/06 03:17:02;;;;;;;3.67;1.95;;;16.00;72.30;;;;;;5019407;28;20053;-64
2023/07/06 03:19:29;;;;;;;4.38;2.05;;;16.00;72.40;;;;;;5001942;28;20045;-64
2023/07/06 03:21:58;;;;;;;5.72;2.00;;;15.90;72.30;;;;;;5014185;28;20054;-65
2023/07/06 03:24:27;;;;;;;3.38;1.83;;;15.90;72.50;;;;;;4970217;28;20965;-65
2023/07/06 03:26:54;;;;;;;4.65;2.25;;;15.80;72.60;;;;;;4971021;28;20501;-65
2023/07/06 03:29:22;;;;;;;3.75;1.88;;;15.80;72.80;;;;;;4990526;28;20133;-66
2023/07/06 03:31:49;;;;;;;5.32;2.15;;;15.70;72.80;;;;;;4996025;28;20044;-65
2023/07/06 03:34:16;;;;;;;3.95;2.30;;;15.70;72.90;;;;;;5020106;28;20408;-65
2023/07/06 03:36:43;;;;;;;3.35;1.92;;;15.70;73.00;;;;;;5020444;28;20115;-65
2023/07/06 03:39:12;;;;;;;6.07;2.20;;;15.70;73.30;;;;;;5020113;28;20056;-67
2023/07/06 03:41:39;;;;;;;5.03;2.25;;;15.60;73.60;;;;;;5002766;28;20050;-66
2023/07/06 03:44:06;;;;;;;4.50;2.28;;;15.60;73.60;;;;;;4999185;28;20064;-65
2023/07/06 03:46:35;;;;;;;5.30;2.60;;;15.60;73.50;;;;;;5017802;28;20069;-66
2023/07/06 03:49:03;;;;;;;6.03;3.00;;;15.60;73.50;;;;;;5016377;28;20046;-65
2023/07/06 03:51:30;;;;;;;5.60;3.00;;;15.60;73.30;;;;;;5004457;28;20057;-65
2023/07/06 03:53:57;;;;;;;6.10;3.10;;;15.60;73.40;;;;;;5002109;28;20096;-65
2023/07/06 03:56:28;;;;;;;6.38;3.03;;;15.60;73.30;;;;;;5001278;28;20076;-65
2023/07/06 03:58:57;;;;;;;5.35;3.13;;;15.60;73.00;;;;;;5000075;28;20058;-66
2023/07/06 04:01:24;;;;;;;6.37;3.27;;;15.60;72.90;;;;;;4999398;28;20563;-64
2023/07/06 04:03:55;;;;;;;6.38;3.50;;;15.50;73.10;;;;;;5014469;28;20049;-66
2023/07/06 04:06:24;;;;;;;9.13;3.42;;;15.50;73.10;;;;;;5018415;28;20103;-64
2023/07/06 04:08:52;;;;;;;4.85;2.80;;;15.50;72.90;;;;;;5020053;28;20420;-64
2023/07/06 04:11:19;;;;;;;5.65;3.20;;;15.50;72.90;;;;;;5020238;28;20100;-65
2023/07/06 04:13:46;;;;;;;6.07;3.00;;;15.50;72.80;;;;;;5004199;28;20055;-65
2023/07/06 04:16:17;;;;;;;6.50;3.33;;;15.60;72.50;;;;;;4997030;28;20657;-66
2023/07/06 04:18:45;;;;;;;4.75;2.92;;;15.50;72.60;;;;;;5016198;28;20054;-66
2023/07/06 04:21:19;;;;;;;5.03;3.08;;;15.60;72.60;;;;;;5015432;28;20405;-64
2023/07/06 04:23:48;;;;;;;5.47;3.20;;;15.60;72.40;;;;;;5019133;28;20049;-65
2023/07/06 04:26:15;;;;;;;5.30;3.20;;;15.60;72.40;;;;;;5020050;28;20041;-64
2023/07/06 04:28:43;;;;;;;5.57;3.20;;;15.60;72.90;;;;;;5000083;28;20053;-65
2023/07/06 04:31:11;;;;;;;4.97;2.70;;;15.60;72.90;;;;;;5019821;28;20072;-64
2023/07/06 04:33:38;;;;;;;7.22;3.22;;;15.60;73.00;;;;;;5020435;28;20050;-66
2023/07/06 04:36:06;;;;;;;4.80;2.78;;;15.40;73.30;;;;;;5016312;28;20057;-67
2023/07/06 04:38:35;;;;;;;5.95;3.10;;;15.50;73.20;;;;;;5016656;28;20489;-67
2023/07/06 04:41:02;;;;;;;5.22;2.80;;;15.50;73.20;;;;;;5010623;28;20057;-66
2023/07/06 04:43:29;;;;;;;4.90;2.90;;;15.60;73.30;;;;;;5020358;28;20096;-65
2023/07/06 04:45:57;;;;;;;5.97;3.00;;;15.50;73.10;;;;;;5014308;28;20473;-65
2023/07/06 04:48:26;;;;;;;6.15;3.08;;;15.60;72.90;;;;;;5019637;28;20105;-66
2023/07/06 04:50:53;;;;;;;5.85;3.33;;;15.70;72.60;;;;;;5009065;28;20533;-66
2023/07/06 04:53:21;;;;;;;5.93;3.15;;;15.70;72.40;;;;;;5019519;28;20050;-65
2023/07/06 04:55:50;;;;;;;6.55;3.00;;;15.60;72.70;;;;;;5016216;28;20508;-66
2023/07/06 04:58:17;;;;;;;7.13;3.00;;;15.60;72.70;;;;;;5019859;28;20046;-65
2023/07/06 05:00:45;;;;;;;5.85;2.83;;;15.60;72.60;;;;;;5017003;28;20108;-65
2023/07/06 05:03:16;;;;;;;4.20;2.70;;;15.70;72.40;;;;;;5018255;28;20045;-67
2023/07/06 05:05:45;;;;;;;6.07;2.53;;;15.60;72.50;;;;;;5019575;28;20046;-65
2023/07/06 05:08:15;;;;;;;6.27;2.83;;;15.70;72.70;;;;;;5018916;28;20100;-65
2023/07/06 05:10:45;;;;;;;4.95;2.55;;;15.70;72.70;;;;;;5016743;28;20048;-65
2023/07/06 05:13:13;;;;;;;6.68;2.80;;;15.70;72.60;;;;;;5017531;28;20050;-65
2023/07/06 05:15:40;;;;;;;5.65;2.75;;;15.70;72.50;;;;;;5017735;28;20073;-65
2023/07/06 05:18:07;;;;;;;4.65;2.72;;;15.80;72.40;;;;;;5017281;28;20053;-65
2023/07/06 05:20:34;;;;;;;5.85;2.70;;;15.70;72.70;;;;;;5016570;28;20515;-65
2023/07/06 05:23:03;;;;;;;4.55;2.33;;;15.70;72.60;;;;;;5018803;28;20433;-65
2023/07/06 05:25:30;;;;;;;6.05;2.80;;;15.80;72.70;;;;;;5018610;28;20038;-66
2023/07/06 05:27:57;;;;;;;5.65;2.90;;;15.80;72.90;;;;;;5016270;28;20050;-65
2023/07/06 05:30:25;;;;;;;4.95;2.65;;;15.70;72.90;;;;;;5016108;28;20042;-65
2023/07/06 05:32:52;;;;;;;5.28;2.90;;;15.80;73.10;;;;;;4986153;28;20059;-65
2023/07/06 05:35:20;;;;;;;4.72;2.63;;;15.70;73.20;;;;;;5019575;28;20049;-65
2023/07/06 05:37:47;;;;;;;5.53;2.72;;;15.80;73.10;;;;;;5016779;28;20109;-64
2023/07/06 05:40:14;;;;;;;7.85;2.72;;;15.90;72.90;;;;;;5020808;28;20050;-64
2023/07/06 05:42:40;;;;;;;5.03;2.53;;;15.80;73.20;;;;;;5017836;28;20519;-65
2023/07/06 05:45:08;;;;;;;8.73;2.92;;;15.80;73.10;;;;;;5014307;28;20137;-63
2023/07/06 05:47:37;;;;;;;5.63;2.70;;;15.90;73.10;;;;;;5019052;28;20054;-65
2023/07/06 05:50:05;;;;;;;5.80;2.95;;;15.90;73.10;;;;;;5016628;28;20057;-64
2023/07/06 05:52:32;;;;;;;6.43;2.45;;;15.90;73.00;;;;;;5019038;28;20061;-66
2023/07/06 05:54:59;;;;;;;7.75;2.60;;;16.00;72.80;;;;;;5016540;28;20053;-66
2023/07/06 05:57:26;;;;;;;5.35;2.53;;;16.00;72.80;;;;;;5014360;28;20480;-64
2023/07/06 05:59:53;;;;;;;4.75;2.58;;;16.10;72.70;;;;;;5016043;28;20133;-65
2023/07/06 06:02:22;;;;;;;5.43;2.88;;;16.10;72.50;;;;;;5015298;28;20065;-64
2023/07/06 06:04:51;;;;;;;7.07;2.70;;;16.10;72.40;;;;;;5017446;28;20115;-66
2023/07/06 06:07:19;;;;;;;7.72;2.58;;;16.20;72.30;;;;;;5019041;28;20159;-66
2023/07/06 06:09:47;;;;;;;5.13;2.50;;;16.20;72.40;;;;;;5017282;28;20038;-65
2023/07/06 06:12:18;;;;;;;5.45;3.15;;;16.20;72.80;;;;;;5013286;28;20061;-66
2023/07/06 06:14:47;;;;;;;6.68;3.20;;;16.20;72.70;;;;;;5017305;28;20056;-65
2023/07/06 06:17:15;;;;;;;5.90;3.30;;;16.20;72.50;;;;;;5015438;28;20060;-66
2023/07/06 06:19:45;;;;;;;5.78;3.42;;;16.30;72.60;;;;;;5016168;28;20077;-64
2023/07/06 06:22:14;;;;;;;7.18;3.38;;;16.30;72.50;;;;;;5019059;28;20053;-65
2023/07/06 06:24:42;;;;;;;6.22;3.20;;;16.40;72.10;;;;;;5018893;28;20449;-65
2023/07/06 06:27:11;;;;;;;7.82;3.80;;;16.40;72.30;;;;;;5018627;28;20554;-66
2023/07/06 06:29:39;;;;;;;6.68;3.47;;;16.50;72.30;;;;;;5017033;28;20080;-65
2023/07/06 06:32:07;;;;;;;6.90;3.38;;;16.60;72.00;;;;;;5018657;28;20062;-65
2023/07/06 06:34:34;;;;;;;7.60;3.33;;;16.60;71.70;;;;;;5012320;28;20045;-66
2023/07/06 06:37:03;;;;;;;8.05;3.17;;;16.70;71.60;;;;;;5015362;28;20046;-66
2023/07/06 06:39:31;;;;;;;5.47;3.28;;;16.80;71.20;;;;;;5020191;28;20050;-64
2023/07/06 06:42:00;;;;;;;5.80;3.00;;;16.80;71.00;;;;;;5021584;28;20049;-66
2023/07/06 06:44:28;;;;;;;6.80;3.20;;;17.10;70.00;;;;;;5020711;28;20524;-66
2023/07/06 06:46:58;;;;;;;6.35;3.15;;;17.20;69.40;;;;;;5021650;28;20578;-66
2023/07/06 06:49:26;;;;;;;8.73;2.83;;;17.40;69.30;;;;;;5021671;28;20473;-65
2023/07/06 06:51:52;;;;;;;6.22;2.95;;;17.50;68.80;;;;;;5019707;28;20049;-66
2023/07/06 06:54:20;;;;;;;9.45;3.20;;;17.60;68.40;;;;;;5012783;28;20054;-66
2023/07/06 06:56:49;;;;;;;6.03;2.63;;;17.70;68.40;;;;;;5016867;28;20083;-67
2023/07/06 06:59:16;;;;;;;6.30;2.88;;;17.90;68.00;;;;;;5021383;28;20116;-67
2023/07/06 07:01:43;;;;;;;4.80;2.97;;;18.10;67.80;;;;;;5012804;28;20050;-67
2023/07/06 07:04:10;;;;;;;6.68;2.67;;;18.20;67.70;;;;;;5019283;28;20093;-66
2023/07/06 07:06:38;;;;;;;6.07;2.63;;;18.40;67.30;;;;;;5021778;28;20050;-66
2023/07/06 07:09:09;;;;;;;4.57;2.50;;;18.60;67.00;;;;;;5019536;28;20057;-67
2023/07/06 07:11:36;;;;;;;6.70;2.88;;;18.70;66.30;;;;;;5022442;28;20050;-65
2023/07/06 07:14:07;;;;;;;7.63;2.85;;;19.00;65.70;;;;;;5020607;28;20042;-65
2023/07/06 07:16:35;;;;;;;5.28;3.03;;;19.10;65.30;;;;;;5020699;28;20045;-66
2023/07/06 07:19:04;;;;;;;4.80;2.55;;;19.30;64.70;;;;;;5017444;28;20042;-65
2023/07/06 07:21:31;;;;;;;5.88;2.85;;;19.30;64.70;;;;;;5014512;28;20496;-66
2023/07/06 07:23:58;;;;;;;5.78;2.75;;;19.40;64.40;;;;;;5019205;28;20072;-65
2023/07/06 07:26:25;;;;;;;5.60;2.45;;;19.50;64.40;;;;;;5015492;28;20072;-66
2023/07/06 07:28:52;;;;;;;5.70;2.63;;;19.70;62.90;;;;;;5020798;28;20132;-65
2023/07/06 07:31:22;;;;;;;4.95;2.30;;;20.00;61.70;;;;;;5018906;28;20489;-66
2023/07/06 07:33:50;;;;;;;4.72;2.13;;;20.10;61.70;;;;;;4994512;28;20060;-66
2023/07/06 07:36:19;;;;;;;7.78;2.63;;;20.20;61.20;;;;;;4997969;28;20560;-66
2023/07/06 07:38:46;;;;;;;5.32;2.42;;;20.30;60.90;;;;;;5000143;28;20401;-67
2023/07/06 07:41:16;;;;;;;4.95;2.10;;;20.40;60.30;;;;;;4996430;28;20054;-67
2023/07/06 07:43:46;;;;;;;5.25;2.05;;;20.50;59.70;;;;;;4991855;28;20096;-66
2023/07/06 07:46:14;;;;;;;;;;;20.80;59.10;;;;;;4998991;28;20137;-66
2023/07/06 07:48:45;;;;;;;4.65;2.05;;;20.90;58.40;;;;;;4999457;28;19929;-66
2023/07/06 07:51:13;;;;;;;4.75;2.05;;;21.00;57.40;;;;;;5019195;28;20049;-67
2023/07/06 07:53:44;;;;;;;4.30;1.77;;;21.20;56.60;;;;;;5018903;28;20042;-67
2023/07/06 07:56:12;;;;;;;5.03;1.95;;;21.30;56.40;;;;;;5013909;28;20053;-65
2023/07/06 07:58:40;;;;;;;4.50;2.10;;;21.40;55.70;;;;;;5017732;28;20407;-67
2023/07/06 08:01:09;;;;;;;5.97;2.10;;;21.40;55.40;;;;;;5008824;28;20567;-68
2023/07/06 08:03:37;;;;;;;3.88;1.67;;;21.50;54.80;;;;;;5010256;28;20386;-68
2023/07/06 08:06:09;;;;;;;4.40;1.63;;;21.60;54.40;;;;;;5009887;28;20060;-67
2023/07/06 08:08:38;;;;;;;4.75;1.90;;;21.70;54.10;;;;;;5012014;28;20048;-67
2023/07/06 08:11:07;;;;;;;3.17;1.52;;;21.80;53.60;;;;;;5010940;28;20520;-68
2023/07/06 08:13:34;;;;;;;4.20;1.75;;;21.90;53.50;;;;;;5007348;28;20054;-68
2023/07/06 08:16:01;;;;;;;6.03;2.05;;;22.10;52.70;;;;;;5011325;28;20100;-68
2023/07/06 08:18:28;;;;;;;3.55;1.73;;;22.10;52.40;;;;;;5011193;28;20049;-67
2023/07/06 08:20:56;;;;;;;3.83;1.95;;;22.30;51.90;;;;;;5011659;28;20050;-66
2023/07/06 08:23:26;;;;;;;3.83;1.52;;;22.30;52.00;;;;;;5015550;28;20066;-67
2023/07/06 08:25:54;;;;;;;5.93;1.67;;;22.30;51.50;;;;;;4990392;28;20074;-67
2023/07/06 08:28:25;;;;;;;4.78;1.88;;;22.30;51.40;;;;;;4999936;28;20480;-66
2023/07/06 08:30:52;;;;;;;4.22;1.52;;;22.20;51.10;;;;;;4997753;28;20060;-68
2023/07/06 08:33:21;;;;;;;5.20;1.95;;;22.20;51.00;;;;;;5012348;28;20054;-67
2023/07/06 08:35:49;;;;;;;3.20;1.52;;;22.10;50.80;;;;;;5015704;28;20173;-68
2023/07/06 08:38:16;;;;;;;3.88;1.60;;;22.00;50.70;;;;;;5013362;28;20060;-67
2023/07/06 08:40:50;;;;;;;3.92;1.52;;;22.20;50.40;;;;;;5016316;28;20456;-66
2023/07/06 08:43:20;;;;;;;6.00;1.70;;;22.40;50.00;;;;;;5016079;28;20132;-68
2023/07/06 08:45:52;;;;;;;4.95;1.65;;;22.50;48.80;;;;;;5015442;28;20048;-68
2023/07/06 08:48:23;;;;;;;6.20;1.90;;;22.70;48.80;;;;;;5000818;28;20046;-68
2023/07/06 08:50:53;;;;;;;4.40;1.55;;;22.70;48.80;;;;;;5017640;28;20100;-68
2023/07/06 08:53:27;;;;;;;5.75;2.58;;;22.70;48.70;;;;;;5015824;28;20504;-68
2023/07/06 08:55:57;;;;;;;5.13;2.67;;;22.80;48.50;;;;;;4999373;28;20120;-68
2023/07/06 08:58:27;;;;;;;5.50;2.97;;;23.00;48.10;;;;;;5019152;28;20076;-69
2023/07/06 09:01:00;;;;;;;6.00;3.30;;;23.10;47.80;;;;;;5014727;28;20061;-67
2023/07/06 09:03:28;;;;;;;8.55;4.32;;;23.30;47.50;;;;;;5017364;28;20129;-68
2023/07/06 09:05:56;;;;;;;8.25;4.25;;;23.20;46.70;;;;;;5017159;28;20042;-68
2023/07/06 09:08:24;;;;;;;6.95;3.30;;;23.20;46.30;;;;;;5014332;28;20480;-68
2023/07/06 09:10:51;;;;;;;6.68;3.30;;;23.20;46.60;;;;;;5018279;28;20500;-66
2023/07/06 09:13:25;;;;;;;6.55;3.63;;;23.30;46.40;;;;;;5019723;28;20045;-68
2023/07/06 09:15:57;;;;;;;7.63;4.60;;;23.20;46.00;;;;;;5015723;28;20112;-67
2023/07/06 09:18:24;;;;;;;9.93;7.28;;;23.20;46.00;;;;;;5019584;28;20061;-68
2023/07/06 09:20:51;;;;;;;12.18;8.18;;;23.20;45.80;;;;;;5016485;28;20050;-68
2023/07/06 09:23:18;;;;;;;8.57;5.40;;;23.30;45.60;;;;;;5012882;28;20119;-66
2023/07/06 09:25:48;;;;;;;8.85;5.05;;;23.40;45.20;;;;;;5016687;28;20066;-66
2023/07/06 09:28:18;;;;;;;7.53;5.40;;;23.70;45.50;;;;;;5017652;28;20096;-68
2023/07/06 09:30:48;;;;;;;7.93;4.15;;;24.00;45.10;;;;;;5016707;28;20051;-67
2023/07/06 09:33:24;;;;;;;7.22;3.20;;;24.10;45.10;;;;;;5018090;28;20400;-67
2023/07/06 09:35:52;;;;;;;7.15;3.72;;;24.30;44.60;;;;;;4982506;28;20512;-68
2023/07/06 09:38:20;;;;;;;4.97;2.88;;;24.20;44.00;;;;;;4983582;28;20054;-67
2023/07/06 09:40:49;;;;;;;7.07;2.80;;;24.20;43.30;;;;;;4980463;28;20069;-67
2023/07/06 09:43:18;;;;;;;5.72;2.67;;;24.30;43.40;;;;;;4983469;28;20049;-67
2023/07/06 09:45:48;;;;;;;6.40;3.80;;;24.30;43.30;;;;;;4979875;28;20050;-66
2023/07/06 09:48:28;;;;;;;8.13;4.18;;;24.50;43.20;;;;;;4978803;28;20482;-67
2023/07/06 09:50:59;;;;;;;6.72;3.95;;;24.70;42.20;;;;;;4996913;28;20120;-67
2023/07/06 09:53:31;;;;;;;7.38;4.40;;;24.80;42.20;;;;;;4996463;28;20077;-67
2023/07/06 09:55:58;;;;;;;8.02;4.55;;;24.70;41.80;;;;;;4991503;28;20042;-67
2023/07/06 09:58:26;;;;;;;7.65;4.15;;;24.80;41.90;;;;;;5004993;28;20054;-67
2023/07/06 10:01:03;;;;;;;6.07;3.15;;;24.90;41.80;;;;;;5017242;28;20064;-67
2023/07/06 10:03:39;;;;;;;3.97;2.38;;;25.10;41.50;;;;;;5016133;28;20054;-67
2023/07/06 10:06:15;;;;;;;4.72;2.83;;;25.30;40.40;;;;;;5016929;28;20562;-68
2023/07/06 10:08:49;;;;;;;9.40;6.30;;;25.30;40.00;;;;;;5015133;28;20056;-66
2023/07/06 10:11:22;;;;;;;14.18;11.13;;;25.50;39.70;;;;;;5012148;28;20061;-67
2023/07/06 10:13:58;;;;;;;17.55;14.35;;;25.60;39.30;;;;;;5011523;28;20050;-67
2023/07/06 10:16:41;;;;;;;11.02;8.43;;;25.70;38.70;;;;;;5011439;28;20046;-68
2023/07/06 10:19:15;;;;;;;9.05;5.78;;;25.70;38.40;;;;;;5016993;28;20073;-68
2023/07/06 10:21:47;;;;;;;6.07;4.25;;;25.80;38.40;;;;;;5011842;28;20038;-67
2023/07/06 10:24:30;;;;;;;7.10;3.40;;;25.90;38.20;;;;;;5016761;28;20055;-67
2023/07/06 10:27:02;;;;;;;4.22;2.38;;;26.00;37.90;;;;;;5000729;28;20073;-65
2023/07/06 10:29:37;;;;;;;5.88;3.55;;;26.10;38.20;;;;;;5012899;28;20050;-66
2023/07/06 10:32:11;;;;;;;6.38;3.50;;;26.20;38.10;;;;;;5014757;28;20131;-67
2023/07/06 10:34:45;;;;;;;4.15;2.60;;;26.30;37.80;;;;;;4992558;28;20050;-67
2023/07/06 10:37:17;;;;;;;3.60;1.90;;;26.10;37.40;;;;;;5011875;28;20102;-66
2023/07/06 10:40:16;;;;;;;6.90;4.45;;;26.10;37.50;;;;;;5011188;28;20096;-68
2023/07/06 10:42:48;;;;;;;6.40;3.85;;;26.20;37.30;;;;;;5009731;28;20515;-67
2023/07/06 10:45:41;;;;;;;7.53;5.15;;;26.30;37.00;;;;;;5017825;28;20543;-69
2023/07/06 10:48:13;;;;;;;6.43;3.72;;;26.50;36.60;;;;;;5016505;28;20042;-67
2023/07/06 10:50:47;;;;;;;4.20;2.42;;;26.70;35.90;;;;;;5015641;28;20046;-67
2023/07/06 10:53:25;;;;;;;5.18;3.10;;;26.80;35.90;;;;;;5016512;28;20064;-67
2023/07/06 10:56:15;;;;;;;4.80;2.40;;;26.70;35.60;;;;;;4993098;28;20080;-68
2023/07/06 10:58:49;;;;;;;4.82;2.03;;;26.70;35.20;;;;;;5015070;28;20041;-68
2023/07/06 11:01:20;;;;;;;4.97;2.70;;;26.80;35.50;;;;;;5016121;28;20037;-68
2023/07/06 11:03:48;;;;;;;4.10;2.60;;;26.60;34.90;;;;;;5018056;28;20049;-68
2023/07/06 11:06:18;;;;;;;3.77;2.10;;;26.40;34.70;;;;;;5017359;28;20142;-67
2023/07/06 11:09:21;;;;;;;3.70;1.70;;;26.50;35.00;;;;;;5009299;28;20073;-67
2023/07/06 11:12:16;;;;;;;4.32;1.88;;;26.80;35.00;;;;;;5010414;28;20125;-67
2023/07/06 11:14:44;;;;;;;3.47;1.63;;;26.90;34.80;;;;;;5016725;28;20053;-67
2023/07/06 11:17:21;;;;;;;3.92;2.17;;;27.00;34.60;;;;;;5016591;28;20065;-67
2023/07/06 11:19:54;;;;;;;3.50;1.77;;;27.10;34.90;;;;;;5016798;28;20061;-67
2023/07/06 11:22:24;;;;;;;4.78;2.03;;;27.30;34.50;;;;;;5016566;28;20053;-67
2023/07/06 11:24:57;;;;;;;3.63;1.80;;;27.20;34.00;;;;;;4996435;28;20082;-67
2023/07/06 11:27:30;;;;;;;3.85;1.83;;;27.20;33.60;;;;;;4985601;28;20093;-66
2023/07/06 11:30:12;;;;;;;4.72;2.13;;;27.10;33.30;;;;;;4987104;28;20133;-68
2023/07/06 11:33:00;;;;;;;4.38;1.88;;;27.30;33.10;;;;;;4974830;28;20112;-67
2023/07/06 11:35:38;;;;;;;3.95;1.83;;;27.30;32.70;;;;;;4968933;28;20070;-68
2023/07/06 11:38:18;;;;;;;4.55;2.10;;;27.40;33.10;;;;;;4976974;28;20061;-67
2023/07/06 11:41:03;;;;;;;3.83;1.65;;;27.30;33.80;;;;;;4990928;28;20567;-67
2023/07/06 11:43:43;;;;;;;3.83;1.90;;;27.40;33.80;;;;;;5019481;28;20049;-67
2023/07/06 11:46:25;;;;;;;4.18;1.92;;;27.50;33.40;;;;;;5022555;28;20283;-67
2023/07/06 11:49:02;;;;;;;4.70;1.80;;;27.40;33.40;;;;;;5004933;28;20079;-70
2023/07/06 11:51:34;;;;;;;2.40;1.40;;;27.30;33.40;;;;;;5016473;28;20049;-68
2023/07/06 11:54:04;;;;;;;2.75;1.60;;;27.20;33.00;;;;;;5015377;28;20144;-68
2023/07/06 11:56:50;;;;;;;2.83;1.80;;;27.20;33.50;;;;;;5016893;28;20135;-68
2023/07/06 11:59:36;;;;;;;4.30;1.90;;;27.30;34.00;;;;;;5019737;28;20046;-68
2023/07/06 12:02:15;;;;;;;5.07;1.63;;;27.40;32.80;;;;;;5002650;28;20054;-68
2023/07/06 12:04:45;;;;;;;4.55;1.92;;;27.40;33.60;;;;;;5004122;28;20053;-67
2023/07/06 12:07:33;;;;;;;5.00;2.00;;;27.50;33.10;;;;;;5019744;28;20057;-67
2023/07/06 12:10:02;;;;;;;6.00;1.90;;;27.40;33.20;;;;;;5000793;28;20077;-68
2023/07/06 12:12:32;;;;;;;3.80;1.60;;;27.40;33.10;;;;;;4998252;28;20131;-68
2023/07/06 12:15:04;;;;;;;3.03;1.77;;;27.40;33.30;;;;;;5000831;28;20061;-68
2023/07/06 12:17:32;;;;;;;3.20;1.60;;;27.50;33.40;;;;;;5000455;28;20046;-68
2023/07/06 12:20:00;;;;;;;3.67;1.97;;;27.30;33.10;;;;;;4998038;28;20058;-67
2023/07/06 12:22:27;;;;;;;3.47;1.75;;;26.90;32.70;;;;;;5000523;28;20437;-67
2023/07/06 12:24:56;;;;;;;2.40;1.52;;;26.60;33.40;;;;;;5000923;28;20054;-66
2023/07/06 12:27:23;;;;;;;3.65;1.92;;;26.50;33.10;;;;;;4981747;28;20519;-67
2023/07/06 12:29:50;;;;;;;4.82;1.80;;;26.60;33.10;;;;;;5019127;28;20053;-68
2023/07/06 12:32:20;;;;;;;4.07;1.42;;;26.90;33.50;;;;;;5020433;28;20041;-68
2023/07/06 12:34:50;;;;;;;2.50;1.60;;;27.10;33.60;;;;;;5018981;28;20099;-67
2023/07/06 12:37:20;;;;;;;2.88;1.73;;;27.30;33.60;;;;;;5018560;28;20119;-68
2023/07/06 12:39:49;;;;;;;2.67;1.70;;;27.30;34.40;;;;;;5019493;28;20143;-69
2023/07/06 12:42:19;;;;;;;2.60;1.60;;;27.20;32.90;;;;;;5018780;28;20054;-67
2023/07/06 12:44:50;;;;;;;3.47;1.52;;;27.20;33.60;;;;;;5014803;28;20054;-68
2023/07/06 12:47:23;;;;;;;3.78;1.95;;;27.20;33.40;;;;;;5018758;28;20058;-67
2023/07/06 12:49:53;;;;;;;3.60;1.70;;;27.30;33.20;;;;;;5010869;28;20414;-67
2023/07/06 12:52:24;;;;;;;4.93;2.00;;;27.30;34.10;;;;;;5015508;28;20120;-68
2023/07/06 12:54:52;;;;;;;2.85;1.52;;;27.30;33.70;;;;;;5018318;28;20489;-68
2023/07/06 12:57:23;;;;;;;4.07;1.80;;;27.40;33.60;;;;;;5020130;28;20065;-67
2023/07/06 12:59:53;;;;;;;5.20;1.77;;;27.30;33.10;;;;;;5010192;28;20077;-68
2023/07/06 13:02:22;;;;;;;2.92;1.50;;;27.30;32.60;;;;;;5019327;28;20049;-67
2023/07/06 13:04:50;;;;;;;2.97;1.75;;;27.30;33.00;;;;;;5000082;28;20060;-68